Аэропорт
Худжанд (UTDL)

 UTDL / LBD
ЗЦ Центральная Азия
Душанбе (UTDD)
Душанбе (UTDD)
 40.21540, 69.69470  / 1450 ft

 UTDL 140300Z 1404/1413 08007MPS 1500 BR SCT011 BECMG 1407/1408 07012MPS 3100 BR NSC
UTDL_aip_1705
показать схемы

2018 © VATRUS division